Time;durP1;ratioP1;P1;durP2;ratioP2;P2;SDS_P1;SDS_P2;PMS_P1;PMS_P2;Temp;Humidity;BMP_temperature;BMP_pressure;BME280_temperature;BME280_humidity;BME280_pressure;Samples;Min_cycle;Max_cycle;Signal;HPM_P1;HPM_P2
2024/01/04 00:01:14;;;;;;;1999.90;999.90;;;;;;;;;;5085221;28;20185;-68
2024/01/04 00:03:42;;;;;;;1999.90;999.90;;;;;;;;;;5085791;28;20229;-69
2024/01/04 00:06:10;;;;;;;1999.90;999.90;;;;;;;;;;5085870;28;20205;-69
2024/01/04 00:08:38;;;;;;;1999.90;999.90;;;;;;;;;;5084438;28;20397;-68
2024/01/04 00:11:06;;;;;;;1999.90;999.90;;;;;;;;;;5085801;28;20562;-71
2024/01/04 00:13:34;;;;;;;1999.90;999.90;;;;;;;;;;5084833;28;20198;-68
2024/01/04 00:16:02;;;;;;;1999.90;999.90;;;;;;;;;;5067538;28;20230;-69
2024/01/04 00:18:30;;;;;;;1999.90;999.90;;;;;;;;;;5085272;28;20290;-69
2024/01/04 00:20:58;;;;;;;1999.90;999.90;;;;;;;;;;5085412;28;20195;-69
2024/01/04 00:23:27;;;;;;;1999.90;999.90;;;;;;;;;;5085367;28;20741;-69
2024/01/04 00:25:54;;;;;;;1999.90;999.90;;;;;;;;;;5084959;28;20190;-68
2024/01/04 00:28:21;;;;;;;1999.90;999.90;;;;;;;;;;5050028;28;20215;-68
2024/01/04 00:30:49;;;;;;;1999.90;999.90;;;;;;;;;;5084553;28;20227;-68
2024/01/04 00:33:16;;;;;;;1999.90;999.90;;;;;;;;;;5085614;28;20202;-68
2024/01/04 00:35:43;;;;;;;1999.90;999.90;;;;;;;;;;5084859;28;20191;-70
2024/01/04 00:38:11;;;;;;;1999.90;999.90;;;;;;;;;;5085145;28;20231;-71
2024/01/04 00:40:40;;;;;;;1999.90;999.90;;;;;;;;;;5085111;28;20218;-69
2024/01/04 00:43:07;;;;;;;1999.90;999.90;;;;;;;;;;5085581;28;20210;-73
2024/01/04 00:45:34;;;;;;;1999.90;999.90;;;;;;;;;;5085804;28;20214;-69
2024/01/04 00:48:02;;;;;;;1999.90;999.90;;;;;;;;;;5084989;28;20888;-72
2024/01/04 00:50:29;;;;;;;1999.90;999.90;;;;;;;;;;5085444;28;20212;-71
2024/01/04 00:52:57;;;;;;;1999.90;999.90;;;;;;;;;;5067100;28;20202;-72
2024/01/04 00:55:24;;;;;;;1999.90;999.90;;;;;;;;;;5084975;28;20194;-76
2024/01/04 00:57:53;;;;;;;1999.90;999.90;;;;;;;;;;5078196;28;20543;-73
2024/01/04 01:00:21;;;;;;;1999.90;999.90;;;;;;;;;;5076636;28;20199;-74
2024/01/04 01:02:48;;;;;;;1999.90;999.90;;;;;;;;;;5086892;28;20194;-70
2024/01/04 01:05:15;;;;;;;1999.90;999.90;;;;;;;;;;5066449;28;20685;-71
2024/01/04 01:07:43;;;;;;;1999.90;999.90;;;;;;;;;;5085309;28;20279;-71
2024/01/04 01:10:10;;;;;;;1999.90;999.90;;;;;;;;;;5066309;28;20749;-70
2024/01/04 01:12:37;;;;;;;1999.90;999.90;;;;;;;;;;5085428;28;20184;-72
2024/01/04 01:15:07;;;;;;;1999.90;999.90;;;;;;;;;;5084885;28;20660;-71
2024/01/04 01:17:34;;;;;;;1999.90;999.90;;;;;;;;;;5066308;28;20187;-72
2024/01/04 01:20:01;;;;;;;1999.90;999.90;;;;;;;;;;5084548;28;20192;-72
2024/01/04 01:22:29;;;;;;;1999.90;999.90;;;;;;;;;;5083689;28;20219;-71
2024/01/04 01:24:56;;;;;;;1999.90;999.90;;;;;;;;;;5085249;28;20525;-71
2024/01/04 01:27:24;;;;;;;1999.90;999.90;;;;;;;;;;5083826;28;20206;-71
2024/01/04 01:29:52;;;;;;;1999.90;999.90;;;;;;;;;;5084496;28;20751;-70
2024/01/04 01:32:21;;;;;;;1999.90;999.90;;;;;;;;;;5066813;28;20195;-70
2024/01/04 01:34:48;;;;;;;1999.90;999.90;;;;;;;;;;5069200;28;20195;-70
2024/01/04 01:37:15;;;;;;;1999.90;999.90;;;;;;;;;;5087569;28;20233;-69
2024/01/04 01:39:43;;;;;;;1999.90;999.90;;;;;;;;;;5088302;28;20194;-67
2024/01/04 01:42:10;;;;;;;1999.90;999.90;;;;;;;;;;5088964;28;20252;-69
2024/01/04 01:44:37;;;;;;;1999.90;999.90;;;;;;;;;;5087924;28;20191;-69
2024/01/04 01:47:05;;;;;;;1999.90;999.90;;;;;;;;;;5070153;28;20676;-69
2024/01/04 01:49:34;;;;;;;1999.90;999.90;;;;;;;;;;5087533;28;20234;-69
2024/01/04 01:52:01;;;;;;;1999.90;999.90;;;;;;;;;;5088019;28;20195;-70
2024/01/04 01:54:29;;;;;;;1999.90;999.90;;;;;;;;;;5087895;28;20203;-69
2024/01/04 01:56:56;;;;;;;1999.90;999.90;;;;;;;;;;5087162;28;20229;-69
2024/01/04 01:59:24;;;;;;;1999.90;999.90;;;;;;;;;;5088279;28;20181;-69
2024/01/04 02:01:52;;;;;;;1999.90;999.90;;;;;;;;;;5087392;28;20199;-69
2024/01/04 02:04:20;;;;;;;1999.90;999.90;;;;;;;;;;5073284;28;20210;-68
2024/01/04 02:06:48;;;;;;;1999.90;999.90;;;;;;;;;;5087079;28;20823;-69
2024/01/04 02:09:16;;;;;;;1999.90;999.90;;;;;;;;;;5088116;28;20551;-69
2024/01/04 02:11:44;;;;;;;1999.90;999.90;;;;;;;;;;5087507;28;20200;-68
2024/01/04 02:14:11;;;;;;;1999.90;999.90;;;;;;;;;;5087437;28;20554;-69
2024/01/04 02:16:38;;;;;;;1999.90;999.90;;;;;;;;;;5087206;28;20196;-68
2024/01/04 02:19:09;;;;;;;1999.90;999.90;;;;;;;;;;5087154;28;20193;-69
2024/01/04 02:21:37;;;;;;;1999.90;999.90;;;;;;;;;;5077221;28;20601;-69
2024/01/04 02:24:06;;;;;;;1999.90;999.90;;;;;;;;;;5087178;28;20860;-68
2024/01/04 02:26:33;;;;;;;1999.90;999.90;;;;;;;;;;5086816;28;20212;-69
2024/01/04 02:29:01;;;;;;;1999.90;999.90;;;;;;;;;;5085520;28;20206;-68
2024/01/04 02:31:28;;;;;;;1999.90;999.90;;;;;;;;;;5068344;28;20231;-68
2024/01/04 02:33:55;;;;;;;1999.90;999.90;;;;;;;;;;5087370;28;20550;-68
2024/01/04 02:36:23;;;;;;;1999.90;999.90;;;;;;;;;;5085725;28;20242;-69
2024/01/04 02:38:50;;;;;;;1999.90;999.90;;;;;;;;;;5069362;28;20198;-68
2024/01/04 02:41:19;;;;;;;1999.90;999.90;;;;;;;;;;5068934;28;20284;-69
2024/01/04 02:43:46;;;;;;;1999.90;999.90;;;;;;;;;;5082249;28;20224;-68
2024/01/04 02:46:14;;;;;;;1999.90;999.90;;;;;;;;;;5087143;28;20693;-68
2024/01/04 02:48:41;;;;;;;1999.90;999.90;;;;;;;;;;5086558;28;20205;-68
2024/01/04 02:51:09;;;;;;;1999.90;999.90;;;;;;;;;;5087466;28;20586;-68
2024/01/04 02:53:36;;;;;;;1999.90;999.90;;;;;;;;;;5067670;28;20196;-68
2024/01/04 02:56:04;;;;;;;1999.90;999.90;;;;;;;;;;5069224;28;20190;-68
2024/01/04 02:58:32;;;;;;;1999.90;999.90;;;;;;;;;;5085738;28;20205;-68
2024/01/04 03:01:00;;;;;;;1999.90;999.90;;;;;;;;;;5086799;28;20189;-71
2024/01/04 03:03:28;;;;;;;1999.90;999.90;;;;;;;;;;5086054;28;20196;-67
2024/01/04 03:05:55;;;;;;;1999.90;999.90;;;;;;;;;;5086744;28;20193;-69
2024/01/04 03:08:22;;;;;;;1999.90;999.90;;;;;;;;;;5085878;28;20201;-68
2024/01/04 03:10:50;;;;;;;1999.90;999.90;;;;;;;;;;5085514;28;20219;-68
2024/01/04 03:13:17;;;;;;;1999.90;999.90;;;;;;;;;;5087243;28;20201;-68
2024/01/04 03:15:46;;;;;;;1999.90;999.90;;;;;;;;;;5085892;28;20527;-67
2024/01/04 03:18:13;;;;;;;1999.90;999.90;;;;;;;;;;5086232;28;20198;-68
2024/01/04 03:20:41;;;;;;;1999.90;999.90;;;;;;;;;;5086008;28;20332;-67
2024/01/04 03:23:08;;;;;;;1999.90;999.90;;;;;;;;;;5086596;28;20194;-67
2024/01/04 03:25:35;;;;;;;1999.90;999.90;;;;;;;;;;5067650;28;20191;-67
2024/01/04 03:28:03;;;;;;;1999.90;999.90;;;;;;;;;;5067110;28;20191;-66
2024/01/04 03:30:30;;;;;;;1999.90;999.90;;;;;;;;;;5086199;28;20272;-68
2024/01/04 03:32:59;;;;;;;1999.90;999.90;;;;;;;;;;5086091;28;20193;-67
2024/01/04 03:35:27;;;;;;;1999.90;999.90;;;;;;;;;;5086455;28;20194;-68
2024/01/04 03:37:54;;;;;;;1999.90;999.90;;;;;;;;;;5063899;28;20597;-67
2024/01/04 03:40:21;;;;;;;1999.90;999.90;;;;;;;;;;5065551;28;20233;-68
2024/01/04 03:42:49;;;;;;;1999.90;999.90;;;;;;;;;;5065831;28;21051;-68
2024/01/04 03:45:16;;;;;;;1999.90;999.90;;;;;;;;;;5065084;28;20188;-68
2024/01/04 03:47:43;;;;;;;1999.90;999.90;;;;;;;;;;5065853;28;20200;-67
2024/01/04 03:50:12;;;;;;;1999.90;999.90;;;;;;;;;;5065250;28;20223;-69
2024/01/04 03:52:39;;;;;;;1999.90;999.90;;;;;;;;;;5067512;28;20209;-69
2024/01/04 03:55:07;;;;;;;1999.90;999.90;;;;;;;;;;5069036;28;20230;-67
2024/01/04 03:57:34;;;;;;;1999.90;999.90;;;;;;;;;;5064302;28;20195;-68
2024/01/04 04:00:03;;;;;;;1999.90;999.90;;;;;;;;;;5064259;28;20227;-72
2024/01/04 04:02:30;;;;;;;1999.90;999.90;;;;;;;;;;5065818;28;20676;-68
2024/01/04 04:04:57;;;;;;;1999.90;999.90;;;;;;;;;;5066275;28;20525;-69
2024/01/04 04:07:26;;;;;;;1999.90;999.90;;;;;;;;;;5065831;28;20662;-71
2024/01/04 04:09:53;;;;;;;1999.90;999.90;;;;;;;;;;5065541;28;20195;-68
2024/01/04 04:12:20;;;;;;;1999.90;999.90;;;;;;;;;;5047545;28;20393;-69
2024/01/04 04:14:47;;;;;;;1999.90;999.90;;;;;;;;;;5064977;28;20188;-74
2024/01/04 04:17:18;;;;;;;1999.90;999.90;;;;;;;;;;5066015;28;20239;-74
2024/01/04 04:19:45;;;;;;;1999.90;999.90;;;;;;;;;;5064894;28;20216;-72
2024/01/04 04:22:12;;;;;;;1999.90;999.90;;;;;;;;;;5066368;28;20195;-73
2024/01/04 04:24:41;;;;;;;1999.90;999.90;;;;;;;;;;5065186;28;20199;-67
2024/01/04 04:27:08;;;;;;;1999.90;999.90;;;;;;;;;;5064366;28;20197;-68
2024/01/04 04:29:36;;;;;;;1999.90;999.90;;;;;;;;;;5065126;28;20268;-69
2024/01/04 04:32:03;;;;;;;1999.90;999.90;;;;;;;;;;5065341;28;20215;-68
2024/01/04 04:34:31;;;;;;;1999.90;999.90;;;;;;;;;;5046580;28;20202;-67
2024/01/04 04:36:58;;;;;;;1999.90;999.90;;;;;;;;;;5073462;28;20471;-67
2024/01/04 04:39:25;;;;;;;1999.90;999.90;;;;;;;;;;5085672;28;20195;-67
2024/01/04 04:41:54;;;;;;;1999.90;999.90;;;;;;;;;;5084533;28;20524;-68
2024/01/04 04:44:21;;;;;;;1999.90;999.90;;;;;;;;;;5085513;28;20615;-67
2024/01/04 04:46:49;;;;;;;1999.90;999.90;;;;;;;;;;5084088;28;20196;-68
2024/01/04 04:49:16;;;;;;;1999.90;999.90;;;;;;;;;;5085359;28;20213;-69
2024/01/04 04:51:48;;;;;;;1999.90;999.90;;;;;;;;;;5085143;28;20215;-67
2024/01/04 04:54:16;;;;;;;1999.90;999.90;;;;;;;;;;5085510;28;20198;-67
2024/01/04 04:56:43;;;;;;;1999.90;999.90;;;;;;;;;;5066527;28;20203;-67
2024/01/04 04:59:14;;;;;;;1999.90;999.90;;;;;;;;;;5065051;28;21093;-67
2024/01/04 05:01:43;;;;;;;1999.90;999.90;;;;;;;;;;5096359;28;20625;-68
2024/01/04 05:04:10;;;;;;;1999.90;999.90;;;;;;;;;;5088585;28;20235;-67
2024/01/04 05:06:37;;;;;;;1999.90;999.90;;;;;;;;;;5087145;28;20552;-67
2024/01/04 05:09:07;;;;;;;1999.90;999.90;;;;;;;;;;5094670;28;20195;-67
2024/01/04 05:11:35;;;;;;;1999.90;999.90;;;;;;;;;;5072345;28;20793;-67
2024/01/04 05:14:03;;;;;;;1999.90;999.90;;;;;;;;;;5089167;28;20316;-68
2024/01/04 05:16:32;;;;;;;1999.90;999.90;;;;;;;;;;5069523;28;20198;-67
2024/01/04 05:18:59;;;;;;;1999.90;999.90;;;;;;;;;;5076505;28;20232;-67
2024/01/04 05:21:26;;;;;;;1999.90;999.90;;;;;;;;;;5099921;28;20656;-67
2024/01/04 05:23:54;;;;;;;1999.90;999.90;;;;;;;;;;5088845;28;20202;-67
2024/01/04 05:26:22;;;;;;;1999.90;999.90;;;;;;;;;;5088007;28;20207;-68
2024/01/04 05:28:49;;;;;;;1999.90;999.90;;;;;;;;;;5092463;28;20267;-67
2024/01/04 05:31:18;;;;;;;1999.90;999.90;;;;;;;;;;5099203;28;20222;-68
2024/01/04 05:33:48;;;;;;;1999.90;999.90;;;;;;;;;;5070767;28;20314;-66
2024/01/04 05:36:15;;;;;;;1999.90;999.90;;;;;;;;;;5093677;28;20230;-70
2024/01/04 05:38:43;;;;;;;1999.90;999.90;;;;;;;;;;5091832;28;20210;-68
2024/01/04 05:41:10;;;;;;;1999.90;999.90;;;;;;;;;;5088702;28;20207;-68
2024/01/04 05:43:38;;;;;;;1999.90;999.90;;;;;;;;;;5092131;28;20273;-65
2024/01/04 05:46:05;;;;;;;1999.90;999.90;;;;;;;;;;5089295;28;20199;-66
2024/01/04 05:48:33;;;;;;;1999.90;999.90;;;;;;;;;;5094681;28;20197;-68
2024/01/04 05:51:02;;;;;;;1999.90;999.90;;;;;;;;;;5094166;28;20219;-68
2024/01/04 05:53:29;;;;;;;1999.90;999.90;;;;;;;;;;5090565;28;20187;-68
2024/01/04 05:55:56;;;;;;;1999.90;999.90;;;;;;;;;;5091957;28;20194;-68
2024/01/04 05:58:24;;;;;;;1999.90;999.90;;;;;;;;;;5091412;28;20594;-69
2024/01/04 06:00:51;;;;;;;1999.90;999.90;;;;;;;;;;5078267;28;20544;-69
2024/01/04 06:03:19;;;;;;;1999.90;999.90;;;;;;;;;;5101290;28;20226;-70
2024/01/04 06:05:46;;;;;;;1999.90;999.90;;;;;;;;;;5102863;28;20198;-71
2024/01/04 06:08:15;;;;;;;1999.90;999.90;;;;;;;;;;5097571;28;20213;-69
2024/01/04 06:10:42;;;;;;;1999.90;999.90;;;;;;;;;;5077370;28;20190;-69
2024/01/04 06:13:09;;;;;;;1999.90;999.90;;;;;;;;;;5079380;28;20197;-69
2024/01/04 06:15:37;;;;;;;1999.90;999.90;;;;;;;;;;5101393;28;20226;-69
2024/01/04 06:18:04;;;;;;;1999.90;999.90;;;;;;;;;;5094337;28;20843;-69
2024/01/04 06:20:31;;;;;;;1999.90;999.90;;;;;;;;;;5096353;28;20198;-69
2024/01/04 06:22:59;;;;;;;1999.90;999.90;;;;;;;;;;5066845;28;20289;-69
2024/01/04 06:25:27;;;;;;;1999.90;999.90;;;;;;;;;;5087412;28;20206;-68
2024/01/04 06:27:55;;;;;;;1999.90;999.90;;;;;;;;;;5071124;28;20190;-69
2024/01/04 06:30:22;;;;;;;1999.90;999.90;;;;;;;;;;5086947;28;20202;-69
2024/01/04 06:32:49;;;;;;;1999.90;999.90;;;;;;;;;;5087741;28;20569;-69
2024/01/04 06:35:17;;;;;;;1999.90;999.90;;;;;;;;;;5086757;28;20544;-69
2024/01/04 06:37:44;;;;;;;1999.90;999.90;;;;;;;;;;5075484;28;20326;-68
2024/01/04 06:40:12;;;;;;;1999.90;999.90;;;;;;;;;;5088818;28;20202;-69
2024/01/04 06:42:42;;;;;;;1999.90;999.90;;;;;;;;;;5084252;28;20571;-69
2024/01/04 06:45:09;;;;;;;1999.90;999.90;;;;;;;;;;5079710;28;20280;-69
2024/01/04 06:47:37;;;;;;;1999.90;999.90;;;;;;;;;;5082588;28;20195;-68
2024/01/04 06:50:05;;;;;;;1999.90;999.90;;;;;;;;;;5088002;28;20209;-69
2024/01/04 06:52:32;;;;;;;1999.90;999.90;;;;;;;;;;5083903;28;20214;-70
2024/01/04 06:54:59;;;;;;;1999.90;999.90;;;;;;;;;;5086893;28;20291;-69
2024/01/04 06:57:27;;;;;;;1999.90;999.90;;;;;;;;;;5081690;28;20192;-69
2024/01/04 06:59:56;;;;;;;1999.90;999.90;;;;;;;;;;5084453;28;20207;-69
2024/01/04 07:02:23;;;;;;;1999.90;999.90;;;;;;;;;;5083459;28;20202;-69
2024/01/04 07:04:50;;;;;;;1999.90;999.90;;;;;;;;;;5081558;28;20186;-70
2024/01/04 07:07:18;;;;;;;1999.90;999.90;;;;;;;;;;5089474;28;20204;-69
2024/01/04 07:09:45;;;;;;;1999.90;999.90;;;;;;;;;;5073139;28;20202;-71
2024/01/04 07:12:12;;;;;;;1999.90;999.90;;;;;;;;;;5081646;28;20225;-71
2024/01/04 07:14:41;;;;;;;1999.90;999.90;;;;;;;;;;5055816;28;20207;-72
2024/01/04 07:17:09;;;;;;;1999.90;999.90;;;;;;;;;;5081054;28;20202;-70
2024/01/04 07:19:37;;;;;;;1999.90;999.90;;;;;;;;;;5085464;28;22431;-71
2024/01/04 07:22:05;;;;;;;1999.90;999.90;;;;;;;;;;5086419;28;20200;-70
2024/01/04 07:24:34;;;;;;;1999.90;999.90;;;;;;;;;;5063698;28;20562;-70
2024/01/04 07:27:02;;;;;;;1999.90;999.90;;;;;;;;;;5075810;28;20245;-70
2024/01/04 07:29:29;;;;;;;1999.90;999.90;;;;;;;;;;5054898;28;20584;-73
2024/01/04 07:31:56;;;;;;;1999.90;999.90;;;;;;;;;;5081912;28;20219;-73
2024/01/04 07:34:25;;;;;;;1999.90;999.90;;;;;;;;;;5081131;28;20193;-69
2024/01/04 07:36:52;;;;;;;1999.90;999.90;;;;;;;;;;5083784;28;20233;-69
2024/01/04 07:39:20;;;;;;;1999.90;999.90;;;;;;;;;;5063984;28;20194;-72
2024/01/04 07:41:47;;;;;;;1999.90;999.90;;;;;;;;;;5080495;28;20206;-73
2024/01/04 07:44:15;;;;;;;1999.90;999.90;;;;;;;;;;5083179;28;20202;-69
2024/01/04 07:46:42;;;;;;;1999.90;999.90;;;;;;;;;;5081960;28;20226;-69
2024/01/04 07:49:10;;;;;;;1999.90;999.90;;;;;;;;;;5084736;28;20667;-69
2024/01/04 07:51:39;;;;;;;1999.90;999.90;;;;;;;;;;5064683;28;20312;-69
2024/01/04 07:54:06;;;;;;;1999.90;999.90;;;;;;;;;;5083659;28;20518;-71
2024/01/04 07:56:34;;;;;;;1999.90;999.90;;;;;;;;;;5084298;28;20190;-69
2024/01/04 07:59:01;;;;;;;1999.90;999.90;;;;;;;;;;5086302;28;20194;-69
2024/01/04 08:01:29;;;;;;;1999.90;999.90;;;;;;;;;;5084792;28;20204;-69
2024/01/04 08:03:59;;;;;;;1999.90;999.90;;;;;;;;;;5087779;28;20555;-68
2024/01/04 08:06:26;;;;;;;1999.90;999.90;;;;;;;;;;5081536;28;20489;-69
2024/01/04 08:08:55;;;;;;;1999.90;999.90;;;;;;;;;;5085555;28;20284;-68
2024/01/04 08:11:23;;;;;;;1999.90;999.90;;;;;;;;;;5082109;28;20202;-68
2024/01/04 08:13:50;;;;;;;1999.90;999.90;;;;;;;;;;5083375;28;20696;-69
2024/01/04 08:16:18;;;;;;;1999.90;999.90;;;;;;;;;;5083864;28;20207;-69
2024/01/04 08:18:45;;;;;;;1999.90;999.90;;;;;;;;;;5086211;28;20225;-68
2024/01/04 08:21:13;;;;;;;1999.90;999.90;;;;;;;;;;5086198;28;21826;-69
2024/01/04 08:23:40;;;;;;;1999.90;999.90;;;;;;;;;;5085627;28;20460;-69
2024/01/04 08:26:10;;;;;;;1999.90;999.90;;;;;;;;;;5084680;28;20207;-69
2024/01/04 08:28:38;;;;;;;1999.90;999.90;;;;;;;;;;5081038;28;20202;-70
2024/01/04 08:31:07;;;;;;;1999.90;999.90;;;;;;;;;;5084089;28;20237;-70
2024/01/04 08:33:34;;;;;;;1999.90;999.90;;;;;;;;;;5083381;28;21315;-70
2024/01/04 08:36:01;;;;;;;1999.90;999.90;;;;;;;;;;5084604;28;20548;-70
2024/01/04 08:38:29;;;;;;;1999.90;999.90;;;;;;;;;;5084360;28;20208;-70
2024/01/04 08:40:56;;;;;;;1999.90;999.90;;;;;;;;;;5080140;28;20194;-69
2024/01/04 08:43:25;;;;;;;1999.90;999.90;;;;;;;;;;5060242;28;20305;-72
2024/01/04 08:45:52;;;;;;;1999.90;999.90;;;;;;;;;;5074239;28;20731;-72
2024/01/04 08:48:19;;;;;;;1999.90;999.90;;;;;;;;;;5074588;28;20209;-71
2024/01/04 08:50:47;;;;;;;1999.90;999.90;;;;;;;;;;5071745;28;20204;-70
2024/01/04 08:53:20;;;;;;;1999.90;999.90;;;;;;;;;;5087416;28;20222;-70
2024/01/04 08:55:47;;;;;;;1999.90;999.90;;;;;;;;;;5085433;28;20233;-70
2024/01/04 08:58:15;;;;;;;1999.90;999.90;;;;;;;;;;5087464;28;20194;-69
2024/01/04 09:00:44;;;;;;;1999.90;999.90;;;;;;;;;;5088663;28;20206;-70
2024/01/04 09:03:11;;;;;;;1999.90;999.90;;;;;;;;;;5084971;28;20208;-68
2024/01/04 09:05:38;;;;;;;1999.90;999.90;;;;;;;;;;5085832;28;20191;-69
2024/01/04 09:08:07;;;;;;;1999.90;999.90;;;;;;;;;;5091657;28;20206;-69
2024/01/04 09:10:35;;;;;;;1999.90;999.90;;;;;;;;;;5090718;28;20575;-69
2024/01/04 09:13:02;;;;;;;1999.90;999.90;;;;;;;;;;5096911;28;20278;-69
2024/01/04 09:15:30;;;;;;;1999.90;999.90;;;;;;;;;;5080850;28;20561;-69
2024/01/04 09:17:59;;;;;;;1999.90;999.90;;;;;;;;;;5098974;28;20190;-69
2024/01/04 09:20:26;;;;;;;1999.90;999.90;;;;;;;;;;5095183;28;20191;-69
2024/01/04 09:22:54;;;;;;;1999.90;999.90;;;;;;;;;;5088221;28;20198;-69
2024/01/04 09:25:21;;;;;;;1999.90;999.90;;;;;;;;;;5089884;28;20194;-71
2024/01/04 09:27:48;;;;;;;1999.90;999.90;;;;;;;;;;5090002;28;20197;-69
2024/01/04 09:30:18;;;;;;;1999.90;999.90;;;;;;;;;;5088014;28;20191;-67
2024/01/04 09:32:45;;;;;;;1999.90;999.90;;;;;;;;;;5098217;28;20734;-67
2024/01/04 09:35:20;;;;;;;1999.90;999.90;;;;;;;;;;5075800;28;20210;-67
2024/01/04 09:37:49;;;;;;;1999.90;999.90;;;;;;;;;;5087592;28;20699;-68
2024/01/04 09:40:17;;;;;;;1999.90;999.90;;;;;;;;;;5101511;28;20188;-67
2024/01/04 09:42:45;;;;;;;1999.90;999.90;;;;;;;;;;5087455;28;20187;-67
2024/01/04 09:45:15;;;;;;;1999.90;999.90;;;;;;;;;;5088608;28;20234;-70
2024/01/04 09:47:44;;;;;;;1999.90;999.90;;;;;;;;;;5094398;28;20202;-67
2024/01/04 09:50:11;;;;;;;1999.90;999.90;;;;;;;;;;5094726;28;20190;-68
2024/01/04 09:52:40;;;;;;;1999.90;999.90;;;;;;;;;;5086921;28;20224;-68
2024/01/04 09:55:09;;;;;;;1999.90;999.90;;;;;;;;;;5069818;28;20582;-68
2024/01/04 09:57:36;;;;;;;1999.90;999.90;;;;;;;;;;5097339;28;20262;-68
2024/01/04 10:00:04;;;;;;;1999.90;999.90;;;;;;;;;;5091819;28;20642;-69
2024/01/04 10:02:33;;;;;;;1999.90;999.90;;;;;;;;;;5087258;28;20201;-69
2024/01/04 10:05:03;;;;;;;1999.90;999.90;;;;;;;;;;5091820;28;20199;-70
2024/01/04 10:07:35;;;;;;;1999.90;999.90;;;;;;;;;;5085491;28;20217;-68
2024/01/04 10:10:08;;;;;;;1999.90;999.90;;;;;;;;;;5085847;28;20199;-69
2024/01/04 10:12:36;;;;;;;1999.90;999.90;;;;;;;;;;5071896;28;20211;-69
2024/01/04 10:15:04;;;;;;;1999.90;999.90;;;;;;;;;;5087631;28;20724;-68
2024/01/04 10:17:32;;;;;;;1999.90;999.90;;;;;;;;;;5086099;28;20257;-71
2024/01/04 10:20:01;;;;;;;1999.90;999.90;;;;;;;;;;5087234;28;20187;-69
2024/01/04 10:22:29;;;;;;;1999.90;999.90;;;;;;;;;;5076615;28;20527;-69
2024/01/04 10:24:56;;;;;;;1999.90;999.90;;;;;;;;;;5087286;28;20194;-69
2024/01/04 10:27:25;;;;;;;1999.90;999.90;;;;;;;;;;5089843;28;20192;-69
2024/01/04 10:29:52;;;;;;;1999.90;999.90;;;;;;;;;;5081537;28;20755;-69
2024/01/04 10:32:20;;;;;;;1999.90;999.90;;;;;;;;;;5085631;28;20212;-68
2024/01/04 10:34:47;;;;;;;1999.90;999.90;;;;;;;;;;5083166;28;20652;-68
2024/01/04 10:37:17;;;;;;;1999.90;999.90;;;;;;;;;;5084049;28;20243;-69
2024/01/04 10:39:45;;;;;;;1999.90;999.90;;;;;;;;;;5075502;28;20220;-68
2024/01/04 10:42:15;;;;;;;1999.90;999.90;;;;;;;;;;5085862;28;20201;-70
2024/01/04 10:44:45;;;;;;;1999.90;999.90;;;;;;;;;;5085143;28;20193;-69
2024/01/04 10:47:14;;;;;;;1999.90;999.90;;;;;;;;;;5084007;28;20563;-69
2024/01/04 10:49:43;;;;;;;1999.90;999.90;;;;;;;;;;5067394;28;20564;-69
2024/01/04 10:52:15;;;;;;;1999.90;999.90;;;;;;;;;;5084118;28;20202;-68
2024/01/04 10:54:42;;;;;;;1999.90;999.90;;;;;;;;;;5067752;28;20683;-74
2024/01/04 10:57:10;;;;;;;1999.90;999.90;;;;;;;;;;5085751;28;20193;-70
2024/01/04 10:59:39;;;;;;;1999.90;999.90;;;;;;;;;;5084430;28;20194;-71
2024/01/04 11:02:10;;;;;;;1999.90;999.90;;;;;;;;;;5081815;28;20208;-68
2024/01/04 11:04:38;;;;;;;1999.90;999.90;;;;;;;;;;5084989;28;20192;-67
2024/01/04 11:07:05;;;;;;;1999.90;999.90;;;;;;;;;;5072270;28;20205;-70
2024/01/04 11:09:34;;;;;;;1999.90;999.90;;;;;;;;;;5061759;28;20907;-67
2024/01/04 11:12:02;;;;;;;1999.90;999.90;;;;;;;;;;5084693;28;20209;-68
2024/01/04 11:14:30;;;;;;;1999.90;999.90;;;;;;;;;;5085136;28;20254;-67
2024/01/04 11:17:06;;;;;;;1999.90;999.90;;;;;;;;;;5082082;28;20198;-67
2024/01/04 11:19:48;;;;;;;1999.90;999.90;;;;;;;;;;5081594;28;20203;-69
2024/01/04 11:22:23;;;;;;;1999.90;999.90;;;;;;;;;;5083872;28;20200;-68
2024/01/04 11:24:55;;;;;;;1999.90;999.90;;;;;;;;;;5081918;28;20189;-69
2024/01/04 11:27:23;;;;;;;1999.90;999.90;;;;;;;;;;5084973;28;20690;-67
2024/01/04 11:29:51;;;;;;;1999.90;999.90;;;;;;;;;;5090692;28;20238;-68
2024/01/04 11:32:19;;;;;;;1999.90;999.90;;;;;;;;;;5079575;28;20193;-68
2024/01/04 11:34:48;;;;;;;1999.90;999.90;;;;;;;;;;5085331;28;20187;-68
2024/01/04 11:37:18;;;;;;;1999.90;999.90;;;;;;;;;;5081054;28;20262;-67
2024/01/04 11:39:52;;;;;;;1999.90;999.90;;;;;;;;;;5068220;28;20286;-68
2024/01/04 11:42:20;;;;;;;1999.90;999.90;;;;;;;;;;5085660;28;20205;-68
2024/01/04 11:44:50;;;;;;;1999.90;999.90;;;;;;;;;;5085301;28;20203;-68
2024/01/04 11:47:17;;;;;;;1999.90;999.90;;;;;;;;;;5088257;28;20206;-68
2024/01/04 11:49:49;;;;;;;1999.90;999.90;;;;;;;;;;5085485;28;20195;-67
2024/01/04 11:52:17;;;;;;;1999.90;999.90;;;;;;;;;;5086069;28;20205;-69
2024/01/04 11:54:46;;;;;;;1999.90;999.90;;;;;;;;;;5085196;28;20215;-68
2024/01/04 11:57:18;;;;;;;1999.90;999.90;;;;;;;;;;5085936;28;20200;-68
2024/01/04 11:59:45;;;;;;;1999.90;999.90;;;;;;;;;;5066471;28;20190;-69
2024/01/04 12:02:18;;;;;;;1999.90;999.90;;;;;;;;;;5068001;28;20575;-67
2024/01/04 12:04:46;;;;;;;1999.90;999.90;;;;;;;;;;5085009;28;20205;-68
2024/01/04 12:07:16;;;;;;;1999.90;999.90;;;;;;;;;;5085709;28;20201;-68
2024/01/04 12:09:44;;;;;;;1999.90;999.90;;;;;;;;;;5081166;28;20197;-68
2024/01/04 12:12:11;;;;;;;1999.90;999.90;;;;;;;;;;5085845;28;20203;-68
2024/01/04 12:14:39;;;;;;;1999.90;999.90;;;;;;;;;;5085847;28;20228;-69
2024/01/04 12:17:06;;;;;;;1999.90;999.90;;;;;;;;;;5084735;28;20200;-68
2024/01/04 12:19:37;;;;;;;1999.90;999.90;;;;;;;;;;5084983;28;20588;-68
2024/01/04 12:22:04;;;;;;;1999.90;999.90;;;;;;;;;;5085045;28;20228;-68
2024/01/04 12:24:33;;;;;;;1999.90;999.90;;;;;;;;;;5066709;28;20740;-68
2024/01/04 12:27:01;;;;;;;1999.90;999.90;;;;;;;;;;5085038;28;20654;-68
2024/01/04 12:29:28;;;;;;;1999.90;999.90;;;;;;;;;;5086553;28;20212;-66
2024/01/04 12:31:56;;;;;;;1999.90;999.90;;;;;;;;;;5085218;28;20204;-66
2024/01/04 12:34:23;;;;;;;1999.90;999.90;;;;;;;;;;5084719;28;20241;-67
2024/01/04 12:36:51;;;;;;;1999.90;999.90;;;;;;;;;;5079870;28;20234;-67
2024/01/04 12:39:19;;;;;;;1999.90;999.90;;;;;;;;;;5082004;28;20204;-66
2024/01/04 12:41:48;;;;;;;1999.90;999.90;;;;;;;;;;5082999;28;20197;-69
2024/01/04 12:44:17;;;;;;;1999.90;999.90;;;;;;;;;;5085325;28;20641;-66
2024/01/04 12:46:46;;;;;;;1999.90;999.90;;;;;;;;;;5078135;28;20220;-66
2024/01/04 12:49:14;;;;;;;1999.90;999.90;;;;;;;;;;5049678;28;20661;-66
2024/01/04 12:51:43;;;;;;;1999.90;999.90;;;;;;;;;;5064402;28;20208;-65
2024/01/04 12:54:11;;;;;;;1999.90;999.90;;;;;;;;;;5076798;28;20661;-66
2024/01/04 12:56:38;;;;;;;1999.90;999.90;;;;;;;;;;5077700;28;20285;-66
2024/01/04 12:59:07;;;;;;;1999.90;999.90;;;;;;;;;;5071269;28;20205;-66
2024/01/04 13:01:35;;;;;;;1999.90;999.90;;;;;;;;;;5058537;28;21782;-67
2024/01/04 13:04:02;;;;;;;1999.90;999.90;;;;;;;;;;5075343;28;20649;-67
2024/01/04 13:06:30;;;;;;;1999.90;999.90;;;;;;;;;;5076216;28;20227;-67
2024/01/04 13:08:57;;;;;;;1999.90;999.90;;;;;;;;;;5084247;28;20190;-67
2024/01/04 13:11:25;;;;;;;1999.90;999.90;;;;;;;;;;5085547;28;20224;-67
2024/01/04 13:13:52;;;;;;;1999.90;999.90;;;;;;;;;;5077432;28;20573;-67
2024/01/04 13:16:21;;;;;;;1999.90;999.90;;;;;;;;;;5084830;28;20288;-66
2024/01/04 13:18:48;;;;;;;1999.90;999.90;;;;;;;;;;5067306;28;20236;-69
2024/01/04 13:21:16;;;;;;;1999.90;999.90;;;;;;;;;;5079527;28;20201;-66
2024/01/04 13:23:43;;;;;;;1999.90;999.90;;;;;;;;;;5080364;28;20194;-67
2024/01/04 13:26:11;;;;;;;1999.90;999.90;;;;;;;;;;5069215;28;20259;-67
2024/01/04 13:28:38;;;;;;;1999.90;999.90;;;;;;;;;;5085138;28;20245;-67
2024/01/04 13:31:06;;;;;;;1999.90;999.90;;;;;;;;;;5102589;28;20212;-67
2024/01/04 13:33:35;;;;;;;1999.90;999.90;;;;;;;;;;5107633;28;20212;-66
2024/01/04 13:36:03;;;;;;;1999.90;999.90;;;;;;;;;;5091134;28;20192;-67
2024/01/04 13:38:30;;;;;;;1999.90;999.90;;;;;;;;;;5097181;28;20282;-67
2024/01/04 13:40:58;;;;;;;1999.90;999.90;;;;;;;;;;5092213;28;20198;-68
2024/01/04 13:43:25;;;;;;;1999.90;999.90;;;;;;;;;;5091508;28;20268;-67
2024/01/04 13:45:53;;;;;;;1999.90;999.90;;;;;;;;;;5088832;28;20538;-68